Time;durP1;ratioP1;P1;durP2;ratioP2;P2;SDS_P1;SDS_P2;PMS_P1;PMS_P2;Temp;Humidity;BMP_temperature;BMP_pressure;BME280_temperature;BME280_humidity;BME280_pressure;Samples;Min_cycle;Max_cycle;Signal;HPM_P1;HPM_P2
2021/08/07 00:01:28;;;;;;;3.17;1.40;;;24.30;46.30;;;;;;5070997;28;20633;-67
2021/08/07 00:03:54;;;;;;;2.58;1.23;;;24.30;46.30;;;;;;5071241;28;20331;-67
2021/08/07 00:06:21;;;;;;;2.83;1.52;;;24.30;46.30;;;;;;5070307;28;20310;-67
2021/08/07 00:08:47;;;;;;;6.00;1.40;;;24.30;46.20;;;;;;5071999;28;20620;-67
2021/08/07 00:11:14;;;;;;;4.65;1.88;;;24.30;46.30;;;;;;5070624;28;20220;-67
2021/08/07 00:13:40;;;;;;;1.55;1.45;;;24.30;46.30;;;;;;5069239;28;20237;-68
2021/08/07 00:16:07;;;;;;;1.65;1.35;;;24.30;46.30;;;;;;5068101;28;20236;-67
2021/08/07 00:18:33;;;;;;;1.63;1.30;;;24.30;46.30;;;;;;5070997;28;20286;-67
2021/08/07 00:21:00;;;;;;;1.65;1.40;;;24.30;46.30;;;;;;5070906;28;20227;-67
2021/08/07 00:23:26;;;;;;;2.55;1.55;;;24.30;46.30;;;;;;5070457;28;20201;-67
2021/08/07 00:25:53;;;;;;;2.38;1.60;;;24.30;46.30;;;;;;5071042;28;20270;-67
2021/08/07 00:28:19;;;;;;;2.58;1.40;;;24.30;46.30;;;;;;5070170;28;20320;-67
2021/08/07 00:30:46;;;;;;;2.78;1.48;;;24.30;46.30;;;;;;5070432;28;20319;-67
2021/08/07 00:33:12;;;;;;;1.80;1.50;;;24.30;46.30;;;;;;5070990;28;20229;-67
2021/08/07 00:35:39;;;;;;;2.03;1.20;;;24.30;46.30;;;;;;5070154;28;20233;-67
2021/08/07 00:38:05;;;;;;;2.95;1.35;;;24.30;46.30;;;;;;5070488;28;20333;-67
2021/08/07 00:40:32;;;;;;;1.67;1.40;;;24.30;46.30;;;;;;5070927;28;20240;-67
2021/08/07 00:42:58;;;;;;;3.10;1.50;;;24.30;46.30;;;;;;5071043;28;20654;-67
2021/08/07 00:45:25;;;;;;;3.58;1.50;;;24.30;46.30;;;;;;5070114;28;20205;-67
2021/08/07 00:47:51;;;;;;;1.50;1.40;;;24.30;46.30;;;;;;5069099;28;20260;-67
2021/08/07 00:50:18;;;;;;;2.70;1.35;;;24.30;46.30;;;;;;5067947;28;20236;-67
2021/08/07 00:52:44;;;;;;;2.42;1.60;;;24.30;46.30;;;;;;5070498;28;20252;-67
2021/08/07 00:55:11;;;;;;;2.25;1.45;;;24.30;46.30;;;;;;5069280;28;20324;-67
2021/08/07 00:57:37;;;;;;;2.00;1.60;;;24.30;46.30;;;;;;5067576;28;20583;-67
2021/08/07 01:00:04;;;;;;;2.95;1.50;;;24.30;46.30;;;;;;5070044;28;20240;-67
2021/08/07 01:02:30;;;;;;;1.55;1.40;;;24.30;46.30;;;;;;5070427;28;20267;-67
2021/08/07 01:04:57;;;;;;;1.60;1.50;;;24.30;46.40;;;;;;5069901;28;20217;-67
2021/08/07 01:07:23;;;;;;;2.28;1.40;;;24.30;46.40;;;;;;5070017;28;20256;-66
2021/08/07 01:09:50;;;;;;;2.70;1.58;;;24.30;46.40;;;;;;5070384;28;20240;-67
2021/08/07 01:12:16;;;;;;;1.73;1.35;;;24.30;46.40;;;;;;5069928;28;20866;-67
2021/08/07 01:14:43;;;;;;;1.50;1.35;;;24.30;46.40;;;;;;5070734;28;20236;-67
2021/08/07 01:17:09;;;;;;;1.73;1.38;;;24.30;46.40;;;;;;5069995;28;20209;-67
2021/08/07 01:19:36;;;;;;;3.85;1.52;;;24.30;46.40;;;;;;5070483;28;20232;-67
2021/08/07 01:22:02;;;;;;;2.03;1.60;;;24.30;46.40;;;;;;5069957;28;20303;-67
2021/08/07 01:24:29;;;;;;;2.20;1.40;;;24.30;46.40;;;;;;5070558;28;20282;-66
2021/08/07 01:26:56;;;;;;;1.67;1.42;;;24.30;47.10;;;;;;5069291;28;20284;-67
2021/08/07 01:29:23;;;;;;;2.08;1.45;;;24.30;46.40;;;;;;5069943;28;20256;-67
2021/08/07 01:31:49;;;;;;;3.05;1.63;;;24.30;46.40;;;;;;5069897;28;20729;-68
2021/08/07 01:34:16;;;;;;;1.75;1.50;;;24.30;46.40;;;;;;5070711;28;20235;-67
2021/08/07 01:36:42;;;;;;;2.40;1.48;;;24.30;46.50;;;;;;5069820;28;20322;-67
2021/08/07 01:39:09;;;;;;;1.55;1.10;;;24.30;46.50;;;;;;5069664;28;20689;-67
2021/08/07 01:41:35;;;;;;;2.33;1.50;;;24.30;46.50;;;;;;5070039;28;20247;-67
2021/08/07 01:44:02;;;;;;;2.05;1.95;;;24.30;46.50;;;;;;5069665;28;20232;-66
2021/08/07 01:46:28;;;;;;;1.98;1.40;;;24.30;46.50;;;;;;5070134;28;20205;-67
2021/08/07 01:48:55;;;;;;;1.98;1.67;;;24.30;46.50;;;;;;5069365;28;20310;-67
2021/08/07 01:51:21;;;;;;;4.75;1.90;;;24.30;46.60;;;;;;5070855;28;20612;-67
2021/08/07 01:53:48;;;;;;;2.30;1.50;;;24.30;46.60;;;;;;5069069;28;20237;-67
2021/08/07 01:56:14;;;;;;;2.28;1.55;;;24.30;46.60;;;;;;5069671;28;20245;-68
2021/08/07 01:58:41;;;;;;;2.35;1.50;;;24.30;46.70;;;;;;5068525;28;20205;-67
2021/08/07 02:01:07;;;;;;;1.70;1.60;;;24.30;46.70;;;;;;5073469;28;20271;-67
2021/08/07 02:03:34;;;;;;;3.25;1.63;;;24.30;46.60;;;;;;5073405;28;20256;-66
2021/08/07 02:06:00;;;;;;;1.92;1.63;;;24.30;46.60;;;;;;5072344;28;20251;-66
2021/08/07 02:08:27;;;;;;;3.13;1.60;;;24.30;46.60;;;;;;5072182;28;20228;-67
2021/08/07 02:10:53;;;;;;;2.20;1.15;;;24.30;46.70;;;;;;5072267;28;20247;-66
2021/08/07 02:13:20;;;;;;;2.65;1.70;;;24.30;46.80;;;;;;5071799;28;20205;-66
2021/08/07 02:15:46;;;;;;;3.78;1.48;;;24.30;46.80;;;;;;5051902;28;20206;-67
2021/08/07 02:18:13;;;;;;;2.38;1.50;;;24.30;46.80;;;;;;5069950;28;20680;-67
2021/08/07 02:20:39;;;;;;;2.22;1.73;;;24.30;46.80;;;;;;5070604;28;20282;-66
2021/08/07 02:23:06;;;;;;;2.40;1.50;;;24.30;46.90;;;;;;5071209;28;20193;-67
2021/08/07 02:25:33;;;;;;;1.65;1.40;;;24.30;46.80;;;;;;5071845;28;20829;-67
2021/08/07 02:27:59;;;;;;;1.88;1.48;;;24.30;46.80;;;;;;5070909;28;20260;-66
2021/08/07 02:30:26;;;;;;;1.38;1.20;;;24.30;46.80;;;;;;5071927;28;20582;-66
2021/08/07 02:32:52;;;;;;;1.75;1.55;;;24.30;46.80;;;;;;5071837;28;20202;-67
2021/08/07 02:35:19;;;;;;;1.30;1.20;;;24.30;46.80;;;;;;5071350;28;20648;-67
2021/08/07 02:37:45;;;;;;;2.67;1.42;;;24.30;46.80;;;;;;5071167;28;20205;-66
2021/08/07 02:40:12;;;;;;;2.53;1.50;;;24.30;46.80;;;;;;5071483;28;20282;-66
2021/08/07 02:42:38;;;;;;;2.40;1.67;;;24.30;46.80;;;;;;5072166;28;20642;-66
2021/08/07 02:45:05;;;;;;;1.40;1.30;;;24.30;46.80;;;;;;5071382;28;20254;-66
2021/08/07 02:47:31;;;;;;;2.25;1.33;;;24.30;46.80;;;;;;5071039;28;20259;-66
2021/08/07 02:49:58;;;;;;;1.60;1.50;;;24.30;46.80;;;;;;5071750;28;20202;-67
2021/08/07 02:52:24;;;;;;;2.15;1.80;;;24.30;46.80;;;;;;5065181;28;20241;-66
2021/08/07 02:54:51;;;;;;;1.80;1.60;;;24.30;46.80;;;;;;5070961;28;20202;-66
2021/08/07 02:57:17;;;;;;;1.73;1.50;;;24.30;46.80;;;;;;5070685;28;20265;-67
2021/08/07 02:59:44;;;;;;;1.70;1.40;;;24.30;46.80;;;;;;5070589;28;20255;-66
2021/08/07 03:02:10;;;;;;;1.77;1.45;;;24.30;46.80;;;;;;5071453;28;20236;-67
2021/08/07 03:04:37;;;;;;;2.50;2.10;;;24.30;46.80;;;;;;5032250;28;1116977;-67
2021/08/07 03:07:03;;;;;;;2.60;1.33;;;24.30;46.80;;;;;;5071685;28;20338;-67
2021/08/07 03:09:30;;;;;;;3.30;1.38;;;24.30;46.80;;;;;;5071980;28;20623;-66
2021/08/07 03:11:56;;;;;;;2.20;1.40;;;24.30;46.80;;;;;;5071404;28;20220;-67
2021/08/07 03:14:23;;;;;;;2.65;1.38;;;24.30;46.70;;;;;;5071926;28;20197;-67
2021/08/07 03:16:49;;;;;;;1.90;1.70;;;24.30;46.80;;;;;;5074788;28;20205;-66
2021/08/07 03:19:16;;;;;;;3.40;1.48;;;24.30;46.70;;;;;;5071480;28;20201;-67
2021/08/07 03:21:42;;;;;;;2.13;1.35;;;24.30;46.70;;;;;;5071990;28;20610;-67
2021/08/07 03:24:09;;;;;;;1.70;1.60;;;24.30;46.70;;;;;;5072020;28;20238;-66
2021/08/07 03:26:36;;;;;;;1.90;1.65;;;24.30;46.70;;;;;;5070925;28;20247;-66
2021/08/07 03:29:02;;;;;;;1.50;1.40;;;24.30;47.40;;;;;;5071342;28;20260;-66
2021/08/07 03:31:29;;;;;;;1.48;1.38;;;24.30;46.70;;;;;;5071025;28;20220;-66
2021/08/07 03:33:55;;;;;;;1.50;1.33;;;24.30;46.70;;;;;;5071929;28;20201;-67
2021/08/07 03:36:22;;;;;;;2.05;1.80;;;24.30;46.70;;;;;;5071222;28;20262;-67
2021/08/07 03:38:48;;;;;;;1.50;1.33;;;24.30;46.70;;;;;;5071361;28;20236;-67
2021/08/07 03:41:15;;;;;;;1.60;1.40;;;24.30;46.70;;;;;;5071284;28;20621;-66
2021/08/07 03:43:41;;;;;;;1.88;1.70;;;24.30;46.70;;;;;;5071810;28;20197;-67
2021/08/07 03:46:08;;;;;;;1.67;1.40;;;24.30;46.70;;;;;;5070938;28;20667;-67
2021/08/07 03:48:34;;;;;;;1.40;1.30;;;24.30;46.70;;;;;;5071244;28;20270;-66
2021/08/07 03:51:01;;;;;;;2.45;1.48;;;24.30;46.70;;;;;;5071527;28;20228;-66
2021/08/07 03:53:27;;;;;;;1.50;1.40;;;24.30;46.80;;;;;;5071422;28;20205;-67
2021/08/07 03:55:54;;;;;;;2.13;1.38;;;24.30;46.70;;;;;;5070881;28;20255;-66
2021/08/07 03:58:20;;;;;;;1.60;1.25;;;24.30;46.80;;;;;;5070268;28;20205;-66
2021/08/07 04:00:47;;;;;;;1.80;1.58;;;24.30;46.70;;;;;;5069587;28;20256;-67
2021/08/07 04:03:13;;;;;;;2.80;1.42;;;24.30;46.80;;;;;;5062215;28;20202;-66
2021/08/07 04:05:40;;;;;;;1.50;1.40;;;24.30;46.70;;;;;;5070317;28;20276;-67
2021/08/07 04:08:08;;;;;;;1.30;1.20;;;24.30;46.80;;;;;;5071113;28;20302;-66
2021/08/07 04:10:35;;;;;;;1.23;1.13;;;24.30;46.70;;;;;;5070689;28;20213;-67
2021/08/07 04:13:01;;;;;;;3.13;1.45;;;24.30;46.80;;;;;;5071473;28;20694;-66
2021/08/07 04:15:28;;;;;;;1.40;1.30;;;24.30;46.80;;;;;;5070628;28;20298;-66
2021/08/07 04:17:54;;;;;;;3.30;1.60;;;24.30;46.70;;;;;;5070136;28;20688;-66
2021/08/07 04:20:21;;;;;;;1.60;1.15;;;24.30;46.80;;;;;;5070565;28;20248;-67
2021/08/07 04:22:47;;;;;;;2.08;1.30;;;24.30;46.80;;;;;;5070732;28;20205;-67
2021/08/07 04:25:14;;;;;;;1.55;1.38;;;24.30;46.80;;;;;;5071244;28;20205;-67
2021/08/07 04:27:40;;;;;;;1.70;1.30;;;24.30;46.80;;;;;;5069822;28;20282;-67
2021/08/07 04:30:07;;;;;;;1.65;1.50;;;24.30;46.80;;;;;;5069493;28;20287;-66
2021/08/07 04:32:33;;;;;;;2.63;1.27;;;24.30;46.80;;;;;;5070512;28;20212;-67
2021/08/07 04:35:00;;;;;;;1.15;1.10;;;24.30;46.80;;;;;;5070895;28;20255;-66
2021/08/07 04:37:27;;;;;;;1.45;1.10;;;24.30;46.80;;;;;;5070384;28;20503;-67
2021/08/07 04:39:53;;;;;;;2.88;1.70;;;24.30;46.80;;;;;;5070362;28;20225;-67
2021/08/07 04:42:20;;;;;;;1.77;1.35;;;24.30;46.80;;;;;;5070829;28;20209;-67
2021/08/07 04:44:46;;;;;;;1.52;1.13;;;24.30;46.80;;;;;;5070166;28;20193;-66
2021/08/07 04:47:13;;;;;;;1.60;1.20;;;24.30;46.80;;;;;;5070507;28;20201;-63
2021/08/07 04:49:39;;;;;;;2.20;1.25;;;24.30;46.80;;;;;;5070159;28;20236;-67
2021/08/07 04:52:06;;;;;;;1.20;1.10;;;24.30;46.80;;;;;;5066624;28;20217;-67
2021/08/07 04:54:32;;;;;;;2.00;1.30;;;24.30;46.80;;;;;;5055954;28;20205;-66
2021/08/07 04:56:59;;;;;;;1.58;1.27;;;24.30;46.90;;;;;;5070439;28;20628;-67
2021/08/07 04:59:25;;;;;;;2.63;1.40;;;24.30;47.00;;;;;;5069555;28;20201;-67
2021/08/07 05:01:52;;;;;;;1.58;1.23;;;24.30;47.00;;;;;;5069105;28;20201;-67
2021/08/07 05:04:18;;;;;;;1.60;1.48;;;24.30;47.10;;;;;;5070352;28;20634;-67
2021/08/07 05:06:45;;;;;;;2.17;1.27;;;24.30;47.00;;;;;;5069800;28;20258;-67
2021/08/07 05:09:11;;;;;;;1.90;1.70;;;24.30;47.00;;;;;;5070035;28;20685;-67
2021/08/07 05:11:38;;;;;;;1.30;1.20;;;24.30;47.00;;;;;;5069753;28;20197;-67
2021/08/07 05:14:04;;;;;;;2.85;1.60;;;24.30;47.00;;;;;;5070132;28;20201;-67
2021/08/07 05:16:31;;;;;;;2.25;1.52;;;24.30;47.00;;;;;;5070441;28;20224;-66
2021/08/07 05:18:57;;;;;;;1.45;1.30;;;24.30;47.00;;;;;;5070563;28;20197;-67
2021/08/07 05:21:24;;;;;;;1.83;1.42;;;24.30;47.00;;;;;;5069738;28;20213;-67
2021/08/07 05:23:51;;;;;;;1.67;1.40;;;24.30;46.90;;;;;;5070977;28;20549;-66
2021/08/07 05:26:17;;;;;;;1.67;1.25;;;24.30;46.90;;;;;;5069133;28;20205;-67
2021/08/07 05:28:45;;;;;;;1.77;1.27;;;24.30;46.90;;;;;;5070253;28;20654;-67
2021/08/07 05:31:12;;;;;;;1.50;1.40;;;24.30;46.90;;;;;;5069382;28;20764;-67
2021/08/07 05:33:38;;;;;;;2.50;1.40;;;24.30;46.90;;;;;;5070883;28;20205;-67
2021/08/07 05:36:05;;;;;;;1.83;1.40;;;24.30;46.90;;;;;;5073619;28;20233;-67
2021/08/07 05:38:31;;;;;;;2.58;1.30;;;24.30;46.90;;;;;;5073817;28;20228;-67
2021/08/07 05:40:58;;;;;;;1.38;1.10;;;24.30;46.90;;;;;;5073558;28;20253;-67
2021/08/07 05:43:24;;;;;;;1.27;1.17;;;24.30;46.90;;;;;;5073658;28;20244;-67
2021/08/07 05:45:51;;;;;;;1.50;1.33;;;24.30;46.90;;;;;;5073468;28;20197;-67
2021/08/07 05:48:18;;;;;;;1.65;1.40;;;24.30;46.90;;;;;;5073666;28;20217;-67
2021/08/07 05:50:45;;;;;;;2.63;1.45;;;24.30;46.90;;;;;;5073705;28;20711;-67
2021/08/07 05:53:11;;;;;;;1.23;1.13;;;24.30;46.90;;;;;;5072709;28;20235;-67
2021/08/07 05:55:38;;;;;;;1.77;1.55;;;24.30;46.90;;;;;;5073046;28;20213;-67
2021/08/07 05:58:05;;;;;;;1.40;1.20;;;24.30;46.80;;;;;;5075111;28;20197;-66
2021/08/07 06:00:31;;;;;;;2.20;1.40;;;24.30;46.90;;;;;;5072960;28;20221;-66
2021/08/07 06:02:58;;;;;;;2.45;1.55;;;24.30;46.90;;;;;;5073008;28;20293;-66
2021/08/07 06:05:24;;;;;;;1.63;1.25;;;24.30;46.80;;;;;;5073676;28;20278;-66
2021/08/07 06:07:51;;;;;;;1.25;1.15;;;24.30;46.80;;;;;;5072974;28;20642;-66
2021/08/07 06:10:17;;;;;;;1.38;1.20;;;24.30;46.80;;;;;;5072818;28;20271;-66
2021/08/07 06:12:44;;;;;;;1.73;1.40;;;24.30;46.80;;;;;;5073595;28;20580;-66
2021/08/07 06:15:10;;;;;;;1.60;1.40;;;24.30;46.80;;;;;;5073073;28;20251;-66
2021/08/07 06:17:38;;;;;;;1.30;1.20;;;24.30;46.80;;;;;;5072486;28;20341;-66
2021/08/07 06:20:04;;;;;;;1.50;1.20;;;24.30;46.80;;;;;;5071082;28;20217;-66
2021/08/07 06:22:31;;;;;;;1.42;1.33;;;24.30;46.80;;;;;;5065318;28;20269;-66
2021/08/07 06:25:00;;;;;;;1.40;1.23;;;24.30;46.80;;;;;;5072235;28;20247;-66
2021/08/07 06:27:26;;;;;;;1.88;1.15;;;24.30;46.80;;;;;;5072659;28;20300;-67
2021/08/07 06:29:53;;;;;;;1.85;1.60;;;24.30;46.80;;;;;;5072761;28;20287;-66
2021/08/07 06:32:19;;;;;;;1.60;1.20;;;24.30;46.80;;;;;;5072997;28;20645;-66
2021/08/07 06:34:46;;;;;;;1.85;1.30;;;24.30;46.80;;;;;;5072446;28;20201;-66
2021/08/07 06:37:12;;;;;;;1.58;1.25;;;24.30;46.80;;;;;;5072429;28;20213;-66
2021/08/07 06:39:39;;;;;;;2.05;1.30;;;24.30;46.80;;;;;;5072209;28;20221;-66
2021/08/07 06:42:05;;;;;;;2.22;1.23;;;24.30;46.80;;;;;;5076614;28;20499;-66
2021/08/07 06:44:32;;;;;;;2.05;1.50;;;24.30;46.80;;;;;;5071721;28;20193;-66
2021/08/07 06:46:58;;;;;;;1.60;1.50;;;24.30;46.80;;;;;;5072213;28;20619;-67
2021/08/07 06:49:25;;;;;;;1.30;1.20;;;24.30;46.80;;;;;;5071444;28;20233;-67
2021/08/07 06:51:52;;;;;;;1.35;1.20;;;24.30;46.70;;;;;;5072720;28;20201;-67
2021/08/07 06:54:18;;;;;;;1.02;1.00;;;24.30;46.70;;;;;;5069365;28;20719;-66
2021/08/07 06:56:48;;;;;;;2.22;1.40;;;24.30;46.70;;;;;;5072544;28;20205;-67
2021/08/07 06:59:14;;;;;;;1.58;1.35;;;24.30;46.70;;;;;;5065436;28;20217;-67
2021/08/07 07:01:41;;;;;;;1.83;1.38;;;24.30;46.70;;;;;;5071980;28;20201;-67
2021/08/07 07:04:07;;;;;;;1.48;1.38;;;24.30;46.70;;;;;;5072432;28;20571;-67
2021/08/07 07:06:34;;;;;;;1.95;1.30;;;24.30;46.70;;;;;;5068697;28;20208;-67
2021/08/07 07:09:00;;;;;;;1.50;1.35;;;24.30;46.70;;;;;;5071894;28;20232;-67
2021/08/07 07:11:27;;;;;;;2.10;1.40;;;24.30;46.70;;;;;;5072330;28;20670;-67
2021/08/07 07:13:53;;;;;;;1.65;1.48;;;24.30;46.70;;;;;;5072913;28;20209;-67
2021/08/07 07:16:20;;;;;;;1.58;1.27;;;24.30;46.70;;;;;;5071504;28;20216;-67
2021/08/07 07:18:46;;;;;;;1.65;1.30;;;24.30;46.80;;;;;;5066669;28;20201;-68
2021/08/07 07:21:13;;;;;;;2.70;1.30;;;24.30;46.60;;;;;;5062478;28;20201;-68
2021/08/07 07:23:39;;;;;;;1.77;1.60;;;24.40;46.60;;;;;;5071361;28;20207;-68
2021/08/07 07:26:06;;;;;;;2.13;1.40;;;24.40;46.80;;;;;;5075534;28;20201;-68
2021/08/07 07:28:32;;;;;;;2.50;1.42;;;24.30;46.60;;;;;;5084225;28;20207;-68
2021/08/07 07:30:59;;;;;;;2.25;1.30;;;24.40;46.80;;;;;;5078118;28;20670;-68
2021/08/07 07:36:01;;;;;;;2.60;1.50;;;24.40;47.10;;;;;;5305793;22;20241;-63
2021/08/07 07:38:29;;;;;;;5.32;1.60;;;24.40;47.20;;;;;;5042825;28;20253;-60
2021/08/07 07:40:55;;;;;;;6.22;2.15;;;24.40;47.40;;;;;;5047289;28;20206;-61
2021/08/07 07:43:22;;;;;;;3.97;1.52;;;24.40;47.50;;;;;;5049764;28;20221;-58
2021/08/07 07:45:48;;;;;;;8.13;1.92;;;24.40;48.10;;;;;;5049856;28;20279;-61
2021/08/07 07:48:15;;;;;;;19.17;2.95;;;24.40;47.30;;;;;;5050878;28;20240;-68
2021/08/07 07:50:41;;;;;;;9.68;3.53;;;24.40;46.80;;;;;;5049230;28;20279;-64
2021/08/07 07:53:08;;;;;;;5.10;2.40;;;24.10;47.30;;;;;;5049539;28;20315;-66
2021/08/07 07:55:34;;;;;;;4.43;2.42;;;24.20;47.60;;;;;;5040122;28;20306;-63
2021/08/07 07:58:01;;;;;;;4.65;2.08;;;24.30;47.50;;;;;;5044533;28;20222;-61
2021/08/07 08:00:27;;;;;;;4.40;2.33;;;24.40;47.10;;;;;;5050953;28;20202;-68
2021/08/07 08:02:54;;;;;;;10.88;2.58;;;24.40;47.20;;;;;;5051542;28;20714;-65
2021/08/07 08:05:20;;;;;;;6.25;2.00;;;24.40;48.00;;;;;;5052695;28;20249;-64
2021/08/07 08:07:47;;;;;;;3.17;1.95;;;24.40;48.00;;;;;;5049014;28;20313;-64
2021/08/07 08:10:15;;;;;;;3.30;1.80;;;24.40;47.80;;;;;;5041959;28;20652;-64
2021/08/07 08:12:41;;;;;;;3.95;1.90;;;24.40;47.20;;;;;;5043992;28;20670;-64
2021/08/07 08:15:08;;;;;;;3.72;1.90;;;24.40;47.10;;;;;;5049431;28;20221;-63
2021/08/07 08:17:35;;;;;;;2.13;1.92;;;24.40;46.90;;;;;;5049156;28;20679;-63
2021/08/07 08:20:01;;;;;;;3.33;1.77;;;24.40;47.00;;;;;;5048882;28;20293;-62
2021/08/07 08:22:28;;;;;;;2.90;1.65;;;24.40;46.80;;;;;;5048760;28;20236;-63
2021/08/07 08:24:54;;;;;;;2.42;1.70;;;24.40;46.70;;;;;;5050162;28;20253;-63
2021/08/07 08:27:21;;;;;;;2.67;1.85;;;24.40;46.80;;;;;;5046558;28;20229;-63
2021/08/07 08:29:47;;;;;;;2.95;1.75;;;24.40;47.10;;;;;;5049794;28;20245;-63
2021/08/07 08:32:13;;;;;;;1.80;1.60;;;24.40;46.80;;;;;;5048055;28;21524;-63
2021/08/07 08:34:40;;;;;;;1.80;1.65;;;24.50;46.80;;;;;;5049745;28;20249;-63
2021/08/07 08:37:06;;;;;;;1.65;1.55;;;24.40;46.60;;;;;;5048270;28;20573;-64
2021/08/07 08:39:33;;;;;;;3.03;1.50;;;24.50;46.70;;;;;;5049849;28;20229;-64
2021/08/07 08:42:00;;;;;;;1.60;1.48;;;24.40;47.10;;;;;;5049461;28;20603;-63
2021/08/07 08:44:26;;;;;;;2.03;1.50;;;24.40;46.70;;;;;;5049867;28;20245;-64
2021/08/07 08:46:53;;;;;;;2.25;1.40;;;24.40;46.60;;;;;;5050885;28;20225;-64
2021/08/07 08:49:20;;;;;;;1.65;1.55;;;24.50;46.70;;;;;;5048605;28;20530;-63
2021/08/07 08:51:46;;;;;;;1.98;1.35;;;24.50;46.70;;;;;;5049677;28;20655;-64
2021/08/07 08:54:13;;;;;;;1.40;1.30;;;24.50;47.30;;;;;;5045810;28;20252;-64
2021/08/07 08:56:39;;;;;;;1.90;1.50;;;24.50;46.60;;;;;;5044533;28;20775;-69
2021/08/07 08:59:07;;;;;;;1.90;1.70;;;24.50;47.10;;;;;;5046343;28;20371;-68
2021/08/07 09:01:34;;;;;;;2.15;1.30;;;24.50;46.20;;;;;;5047805;28;20209;-62
2021/08/07 09:04:03;;;;;;;1.65;1.38;;;24.50;46.40;;;;;;5055985;28;20278;-66
2021/08/07 09:06:29;;;;;;;2.80;1.38;;;24.60;47.00;;;;;;5050266;28;20209;-66
2021/08/07 09:08:56;;;;;;;2.70;1.58;;;24.60;46.60;;;;;;5047310;28;20296;-62
2021/08/07 09:11:22;;;;;;;1.75;1.52;;;24.70;46.70;;;;;;5053391;28;20733;-63
2021/08/07 09:13:49;;;;;;;1.67;1.20;;;24.60;45.90;;;;;;5054677;28;20217;-63
2021/08/07 09:16:15;;;;;;;1.73;1.30;;;24.60;45.70;;;;;;5053625;28;20289;-62
2021/08/07 09:18:42;;;;;;;4.30;1.70;;;24.60;45.20;;;;;;5053229;28;20225;-63
2021/08/07 09:21:09;;;;;;;3.58;1.77;;;24.60;45.70;;;;;;5051428;28;20237;-62
2021/08/07 09:23:35;;;;;;;2.30;1.58;;;24.70;46.20;;;;;;5050183;28;20245;-65
2021/08/07 09:26:02;;;;;;;5.05;1.95;;;24.70;46.20;;;;;;5053136;28;20784;-64
2021/08/07 09:28:28;;;;;;;3.72;1.85;;;24.60;46.80;;;;;;5053300;28;20265;-64
2021/08/07 09:30:55;;;;;;;3.38;1.80;;;24.60;46.80;;;;;;5058496;28;20463;-65
2021/08/07 09:33:21;;;;;;;3.60;1.67;;;24.60;46.80;;;;;;5058422;28;20233;-64
2021/08/07 09:35:47;;;;;;;2.38;1.60;;;24.60;46.90;;;;;;5051198;28;20251;-64
2021/08/07 09:38:14;;;;;;;2.03;1.45;;;24.50;46.80;;;;;;5042386;28;20296;-66
2021/08/07 09:40:41;;;;;;;3.58;1.70;;;24.50;46.50;;;;;;5050010;28;20561;-69
2021/08/07 09:43:07;;;;;;;3.72;1.85;;;24.50;46.50;;;;;;5051566;28;20226;-64
2021/08/07 09:45:34;;;;;;;3.05;1.70;;;24.60;46.60;;;;;;5047745;28;20293;-52
2021/08/07 09:48:01;;;;;;;4.97;1.77;;;24.60;46.60;;;;;;5050198;28;20337;-66
2021/08/07 09:50:27;;;;;;;4.13;1.80;;;24.70;47.30;;;;;;5053050;28;20257;-67
2021/08/07 09:52:54;;;;;;;3.28;1.98;;;24.60;46.70;;;;;;5052864;28;20233;-66
2021/08/07 09:55:20;;;;;;;2.22;1.70;;;24.60;46.70;;;;;;5052227;28;20664;-66
2021/08/07 09:57:47;;;;;;;1.90;1.60;;;24.60;46.70;;;;;;5053490;28;20355;-67
2021/08/07 10:00:13;;;;;;;2.75;1.90;;;24.60;46.80;;;;;;5053750;28;20289;-66
2021/08/07 10:02:39;;;;;;;2.83;1.92;;;24.50;46.70;;;;;;5053840;28;20198;-66
2021/08/07 10:05:07;;;;;;;2.20;1.55;;;24.50;46.70;;;;;;5053097;28;20307;-66
2021/08/07 10:07:33;;;;;;;4.22;2.05;;;24.50;46.70;;;;;;5053548;28;20204;-66
2021/08/07 10:10:00;;;;;;;2.42;1.75;;;24.50;46.80;;;;;;5053441;28;20320;-66
2021/08/07 10:12:26;;;;;;;3.88;2.10;;;24.50;46.70;;;;;;5053539;28;20206;-66
2021/08/07 10:14:53;;;;;;;4.63;2.20;;;24.60;46.80;;;;;;5053157;28;20308;-66
2021/08/07 10:17:19;;;;;;;3.72;2.33;;;24.60;46.80;;;;;;5037288;28;20206;-67
2021/08/07 10:19:46;;;;;;;2.72;1.80;;;24.60;46.90;;;;;;5032619;28;20732;-66
2021/08/07 10:22:14;;;;;;;4.32;2.00;;;24.50;46.80;;;;;;5046142;28;20201;-66
2021/08/07 10:24:40;;;;;;;2.80;1.88;;;24.50;46.80;;;;;;5052780;28;20710;-66
2021/08/07 10:27:07;;;;;;;2.65;1.90;;;24.50;46.90;;;;;;5054043;28;20244;-65
2021/08/07 10:29:33;;;;;;;2.40;2.10;;;24.50;46.90;;;;;;5053918;28;20229;-66
2021/08/07 10:32:00;;;;;;;2.50;1.85;;;24.50;46.90;;;;;;5054308;28;20569;-65
2021/08/07 10:34:26;;;;;;;2.22;2.00;;;24.50;46.90;;;;;;5053086;28;20263;-66
2021/08/07 10:36:52;;;;;;;3.55;1.90;;;24.60;47.00;;;;;;5053669;28;20377;-66
2021/08/07 10:39:19;;;;;;;2.65;2.03;;;24.50;46.90;;;;;;5053226;28;20621;-66
2021/08/07 10:41:45;;;;;;;2.95;2.20;;;24.60;47.00;;;;;;5053350;28;20197;-65
2021/08/07 10:44:12;;;;;;;2.92;2.03;;;24.50;46.90;;;;;;5052983;28;20245;-66
2021/08/07 10:46:38;;;;;;;2.30;1.98;;;24.50;46.90;;;;;;5046869;28;20230;-68
2021/08/07 10:49:06;;;;;;;3.00;2.30;;;24.60;46.90;;;;;;5061770;28;20225;-71
2021/08/07 10:51:33;;;;;;;2.92;1.85;;;24.60;48.20;;;;;;5053280;28;20325;-66
2021/08/07 10:54:00;;;;;;;3.90;2.10;;;24.70;47.50;;;;;;5055811;28;20638;-63
2021/08/07 10:56:26;;;;;;;3.88;2.17;;;24.70;48.30;;;;;;5056059;28;20228;-65
2021/08/07 10:58:52;;;;;;;3.75;2.00;;;24.70;48.20;;;;;;5051370;28;20236;-65
2021/08/07 11:01:19;;;;;;;3.55;1.92;;;24.70;47.60;;;;;;5053876;28;20236;-61
2021/08/07 11:03:46;;;;;;;3.10;1.88;;;24.70;47.40;;;;;;5072204;28;20303;-67
2021/08/07 11:06:12;;;;;;;4.10;2.17;;;24.70;47.30;;;;;;5055870;28;20290;-66
2021/08/07 11:08:39;;;;;;;5.05;1.70;;;24.70;47.40;;;;;;5051907;28;20329;-66
2021/08/07 11:11:05;;;;;;;3.83;1.85;;;24.70;47.40;;;;;;5059139;28;20257;-66
2021/08/07 11:13:32;;;;;;;4.35;1.70;;;24.70;47.40;;;;;;5055974;28;20249;-69
2021/08/07 11:15:58;;;;;;;4.15;2.08;;;24.70;47.40;;;;;;5060536;28;20229;-68
2021/08/07 11:18:25;;;;;;;3.95;2.00;;;24.70;47.60;;;;;;5054603;28;20573;-66
2021/08/07 11:20:51;;;;;;;5.50;2.25;;;24.70;47.60;;;;;;5058306;28;20233;-70
2021/08/07 11:23:18;;;;;;;2.75;1.92;;;24.70;47.60;;;;;;5065896;28;20246;-67
2021/08/07 11:25:44;;;;;;;3.30;2.05;;;24.70;47.50;;;;;;5064524;28;20198;-63
2021/08/07 11:28:10;;;;;;;5.07;2.17;;;24.80;47.60;;;;;;5051701;28;20225;-65
2021/08/07 11:30:39;;;;;;;3.35;2.20;;;24.70;48.30;;;;;;5052789;28;20262;-65
2021/08/07 11:33:06;;;;;;;4.00;2.38;;;24.80;49.20;;;;;;5050393;28;20754;-65
2021/08/07 11:35:33;;;;;;;7.82;2.42;;;24.80;49.20;;;;;;5054823;28;20206;-65
2021/08/07 11:37:59;;;;;;;8.15;2.97;;;24.90;48.80;;;;;;5063510;28;20213;-65
2021/08/07 11:40:26;;;;;;;7.80;3.53;;;24.80;49.10;;;;;;5050491;28;20296;-66
2021/08/07 11:42:53;;;;;;;5.38;3.53;;;24.80;49.10;;;;;;5052338;28;20263;-65
2021/08/07 11:45:19;;;;;;;6.45;4.50;;;24.90;50.50;;;;;;5050806;28;20232;-65
2021/08/07 11:47:46;;;;;;;6.80;4.47;;;24.90;50.20;;;;;;5051710;28;20657;-65
2021/08/07 11:50:12;;;;;;;6.93;4.30;;;24.90;50.20;;;;;;5052470;28;20259;-65
2021/08/07 11:52:38;;;;;;;6.85;4.72;;;24.80;49.80;;;;;;5051013;28;20221;-65
2021/08/07 11:55:05;;;;;;;6.50;4.28;;;24.90;50.30;;;;;;5065913;28;20284;-66
2021/08/07 11:57:31;;;;;;;8.73;4.85;;;24.90;49.90;;;;;;5050253;28;21327;-66
2021/08/07 11:59:58;;;;;;;8.88;4.50;;;24.90;50.20;;;;;;5060194;28;20225;-66
2021/08/07 12:02:24;;;;;;;5.38;3.95;;;24.90;50.60;;;;;;5065401;28;20202;-66
2021/08/07 12:04:51;;;;;;;4.55;3.63;;;24.90;50.30;;;;;;5052461;28;20228;-66
2021/08/07 12:07:17;;;;;;;6.30;4.25;;;24.90;50.00;;;;;;5069304;28;20201;-64
2021/08/07 12:09:44;;;;;;;6.13;3.85;;;24.90;50.20;;;;;;5054277;28;20228;-64
2021/08/07 12:12:13;;;;;;;4.85;3.70;;;24.90;50.30;;;;;;5051467;28;20248;-65
2021/08/07 12:14:41;;;;;;;7.35;4.00;;;24.80;49.90;;;;;;5049569;28;20301;-65
2021/08/07 12:17:07;;;;;;;5.47;3.67;;;24.90;50.20;;;;;;5054491;28;20229;-61
2021/08/07 12:19:34;;;;;;;5.18;3.60;;;24.80;49.70;;;;;;5060671;28;20201;-65
2021/08/07 12:22:00;;;;;;;4.78;3.13;;;24.90;50.30;;;;;;5050464;28;20240;-62
2021/08/07 12:24:27;;;;;;;5.22;3.60;;;24.80;49.70;;;;;;5059592;28;20278;-65
2021/08/07 12:26:53;;;;;;;9.02;3.50;;;24.80;49.80;;;;;;5054260;28;20662;-66
2021/08/07 12:29:20;;;;;;;3.85;3.15;;;24.80;49.70;;;;;;5046275;28;20288;-65
2021/08/07 12:31:47;;;;;;;4.78;3.25;;;24.80;49.60;;;;;;5060540;28;20229;-65
2021/08/07 12:34:13;;;;;;;3.97;3.25;;;24.80;49.50;;;;;;5053805;28;20253;-64
2021/08/07 12:36:40;;;;;;;8.50;3.15;;;24.80;49.40;;;;;;5049333;28;20249;-65
2021/08/07 12:39:06;;;;;;;6.75;2.83;;;24.80;49.40;;;;;;5051387;28;20234;-65
2021/08/07 12:41:33;;;;;;;4.53;2.97;;;24.80;49.20;;;;;;5049669;28;20285;-64
2021/08/07 12:43:59;;;;;;;6.00;3.28;;;24.80;49.20;;;;;;5051387;28;20229;-65